Terminal Aerodrome Forecast
Issued by NWS Milwaukee/Sullivan, WI

Home | Current Version | Previous Version | Text Only | Print | Product List | Glossary On
Versions: 1 2 3 4 5 6 7 8 9 10 11 12 13 14 15 16 17 18 19 20 21 22 23 24 25 26 27 28 29 30 31 32 33 34 35 36 37 38 39 40 41 42 43 44 45 46
000
FTUS43 KMKX 211606 AAB
TAFMKE
TAF AMD
KMKE 211606Z 2116/2218 19008KT P6SM VCSH BKN030 OVC040
     FM211800 20008KT P6SM OVC030
     FM212000 18011G18KT P6SM OVC025
     FM220100 17011KT P6SM OVC015
     FM221500 15012KT 3SM BR OVC040=

USA.gov is the U.S. government's official web portal to all federal, state and local government web resources and services.